Terminal Aerodrome Forecast
Issued by NWS

Home | Current Version | Previous Version | Text Only | Print | Product List | Glossary On
Versions: 1 2 3 4 5 6 7 8 9 10 11 12
249
FTUS42 KTBW 240534
TAFLAL
TAF
KLAL 240534Z 2406/2506 VRB03KT P6SM SKC
     FM241400 10007KT P6SM FEW040
     FM242000 09007KT P6SM VCTS FEW025CB SCT040
     FM250200 10006KT P6SM FEW050
      AMD NOT SKED TIL 241100=

USA.gov is the U.S. government's official web portal to all federal, state and local government web resources and services.